Observations for FALCONARA IT-AFB, Italy (LIPY)

LIPY 260450Z 17003KT CAVOK 21/19 Q1017  
LIPY 260350Z 19003KT CAVOK 20/20 Q1016  
LIPY 260250Z VRB02KT CAVOK 21/20 Q1016  
LIPY 260150Z 19003KT CAVOK 21/20 Q1016  
LIPY 260050Z 16003KT 130V190 CAVOK 21/21 Q1016  
LIPY 252350Z 19003KT CAVOK 21/20 Q1017  
LIPY 252250Z 19002KT CAVOK 22/21 Q1017  
LIPY 252150Z 17003KT CAVOK 22/21 Q1017  
LIPY 252050Z 18003KT CAVOK 23/22 Q1017  
LIPY 251950Z 15003KT CAVOK 24/22 Q1017  
LIPY 251850Z 32002KT CAVOK 24/22 Q1017  
LIPY 251750Z VRB01KT CAVOK 26/23 Q1016  
LIPY 251650Z 35005KT CAVOK 26/23 Q1016  
LIPY 251550Z 33004KT 300V360 CAVOK 26/23 Q1016  
LIPY 251450Z 35008KT CAVOK 27/23 Q1016  
LIPY 251350Z 36011KT CAVOK 27/23 Q1016  
LIPY 251250Z 36011KT CAVOK 27/22 Q1017  
LIPY 251150Z 35010KT CAVOK 27/22 Q1017  
LIPY 251050Z 34009KT 9999 FEW050 26/22 Q1017
LIPY 250950Z 34007KT 310V010 9999 FEW020 SCT070 26/21 Q1018 
LIPY 250750Z 27003KT 210V330 9999 FEW020 25/21 Q1018
LIPY 250650Z VRB02KT 9999 FEW020 23/20 Q1017
LIPY 250450Z 24003KT CAVOK 22/20 Q1017